NOAA/GLERL Met Station at Muskegon, MI

Previous 5 days (top of hour only)
See slso Previous 3 Hours (2 minute increments)
Jump down to Data
Switch to [English][Metric]
Zoom: Click and drag, Pan: shift-click and drag, Unzoom: double-click, Unzoom All





Zoom: Click and drag, Pan: shift-click and drag, Unzoom: double-click, Unzoom All

Note: Speed = mean wind during 2-minute period at top of hour,
Gust = max wind during 2-minute period at top of hour,
Peak = max wind during entire hour.
• See also 5-day windrose plot

NOAA/GLERL Met Station at Muskegon, MI

Previous 5 days (top of hour only)
See slso Previous 3 Hours (2 minute increments)
Jump up to Graphs
Switch to [English][Metric]
                  Wind  Wind  Wind   Air   Dew   Rel     Sta   PAR
                   Spd   Gst   Dir  Temp    Pt   Hum    Pres uE/m2/
YYYY-MM-DD   EDT   kts   kts   deg     F     F     %   in Hg   sec
2016-09-29 18:00   8.9  14.8   101  65.1  57.4  75.8   29.62   748
2016-09-29 17:00  11.5  16.7   105  63.3  57.5  81.1   29.63  1241
2016-09-29 16:00   9.9  16.1    95  64.2  56.2  75.0   29.61   230
2016-09-29 15:00  12.6  20.8    82  64.4  56.3  74.7   29.61   717
2016-09-29 14:00  15.2  20.0    63  64.0  57.1  78.0   29.61   887
2016-09-29 13:00  10.1  14.4    85  63.9  56.2  75.8   29.62   378
2016-09-29 12:00   9.7  17.9    83  64.0  56.2  75.4   29.61   808
2016-09-29 11:00  14.8  20.8    76  61.5  55.5  80.3   29.60   528
2016-09-29 10:00  12.2  18.3    70  60.6  55.3  82.4   29.58   324
2016-09-29 09:00  14.2  16.9    58  57.9  54.1  86.8   29.56   229
2016-09-29 08:00  11.9  18.1    67  57.0  53.0  86.3   29.55    48
2016-09-29 07:00  13.6  18.7    59  57.2  52.2  83.1   29.53     2
2016-09-29 06:00  12.8  14.4    59  57.2  51.8  82.0   29.52     2
2016-09-29 05:00  11.1  15.2    63  57.6  52.0  81.6   29.51     2
2016-09-29 04:00  13.4  16.3    59  57.7  51.9  80.6   29.50     2
2016-09-29 03:00  12.4  16.1    51  57.9  51.9  80.2   29.49     2
2016-09-29 02:00  12.8  16.5    52  57.0  51.5  81.5   29.50     2
2016-09-29 01:00  11.3  14.4    59  56.8  51.0  80.6   29.50     2
2016-09-29 00:00  10.7  14.6    58  56.3  51.4  83.5   29.49     2
2016-09-28 23:00   8.4  10.3    56  57.6  52.7  83.5   29.49     2
2016-09-28 22:00   8.6  10.5    58  58.5  52.6  80.6   29.47     2
2016-09-28 21:00   8.7  12.2    46  58.1  53.0  82.8   29.45     2
2016-09-28 20:00   9.1  11.3    56  58.6  52.4  79.4   29.45     2
2016-09-28 19:00  11.3  14.6    68  58.6  52.8  80.8   29.44    19
2016-09-28 18:00   7.6  10.5    69  59.7  52.1  75.6   29.41   127
2016-09-28 17:00   5.8   7.0    47  59.4  51.4  74.5   29.39   221
2016-09-28 16:00   5.1   8.4    79  66.6  49.2  53.2   29.36   683
2016-09-28 15:00  12.1  17.5    76  64.6  49.9  58.6   29.34  1959
2016-09-28 14:00   7.8  10.7    67  61.2  49.9  66.2   29.34   824
2016-09-28 13:00   7.8  10.7    77  60.3  50.4  69.7   29.32  1079
2016-09-28 12:00   8.0  10.5    70  55.8  50.1  80.9   29.31   680
2016-09-28 11:00   7.0  10.3    78  54.9  49.0  80.5   29.29   700
2016-09-28 10:00   6.0   8.7    79  52.9  50.3  90.7   29.27   367
2016-09-28 09:00   5.2   7.4   128  52.5  50.0  91.0   29.25   125
2016-09-28 08:00   6.6   8.0   121  51.6  49.2  91.2   29.24    45
2016-09-28 07:00   7.6   8.9   140  52.0  50.2  93.5   29.23     2
2016-09-28 06:00   8.2   9.3   214  54.5  48.4  79.7   29.21     2
2016-09-28 05:00   9.5  11.1   276  56.5  47.1  70.4   29.18     2
2016-09-28 04:00   8.6   9.3   276  56.1  48.8  76.3   29.17     2
2016-09-28 03:00  11.3  12.8   284  55.9  48.7  76.5   29.17     2
2016-09-28 02:00  17.9  20.0   265  57.2  48.8  73.3   29.16     2
2016-09-28 01:00   7.0   8.9   284  56.7  48.6  74.0   29.16     2
2016-09-28 00:00  14.8  16.9   300  57.0  48.6  73.1   29.16     2
2016-09-27 23:00   5.6   8.6   343  55.8  50.5  82.2   29.16     2
2016-09-27 22:00  15.9  17.1   283  57.9  50.4  75.7   29.16     2
2016-09-27 21:00  18.9  21.0   295  58.1  49.0  71.3   29.15     2
2016-09-27 20:00  23.9  26.6   306  58.3  49.4  71.9   29.15     2
2016-09-27 19:00  19.4  21.2   298  59.7  49.2  67.8   29.13    17
2016-09-27 18:00  19.2  22.7   295  59.4  48.0  65.6   29.12    80
2016-09-27 17:00  20.0  22.2   288  59.0  47.7  65.9   29.11   207
2016-09-27 16:00  20.6  23.7   287  58.8  48.3  67.8   29.11   260
2016-09-27 15:00  20.4  23.1   288  58.1  46.9  65.9   29.10   502
2016-09-27 14:00  20.6  21.8   294  58.5  48.4  69.0   29.10   398
2016-09-27 13:00  21.0  23.1   292  57.9  48.8  71.4   29.10   386
2016-09-27 12:00  20.6  22.0   287  58.1  47.7  68.0   29.10   799
2016-09-27 11:00  25.7  28.2   289  58.5  47.9  67.5   29.11  1023
2016-09-27 10:00  22.0  24.7   287  58.8  47.2  65.0   29.10  1721
2016-09-27 09:00  25.5  27.2   299  59.4  48.5  66.9   29.10   691
2016-09-27 08:00  24.1  27.2   296  60.1  48.7  65.7   29.10   239
2016-09-27 07:00  25.3  28.4   293  61.5  48.6  62.2   29.11     2
2016-09-27 06:00  24.1  27.8   284  62.2  47.2  57.5   29.11     2
2016-09-27 05:00  25.7  27.8   293  62.8  46.4  54.7   29.13     2
2016-09-27 04:00  21.4  24.1   302  63.0  48.0  57.6   29.15     2
2016-09-27 03:00  22.6  25.5   284  64.0  47.4  54.2   29.16     2
2016-09-27 02:00  24.1  26.2   280  64.2  45.7  50.6   29.17     2
2016-09-27 01:00  22.0  24.3   299  63.7  46.4  52.9   29.20     2
2016-09-27 00:00  24.7  27.8   303  63.5  46.6  53.7   29.22     2
2016-09-26 23:00  28.0  29.7   304  64.2  46.0  51.2   29.24     2
2016-09-26 22:00  23.1  25.7   301  64.8  47.3  52.8   29.24     2
2016-09-26 21:00  25.7  30.9   296  65.1  46.6  50.7   29.24     2
2016-09-26 20:00  25.3  27.6   288  64.8  46.0  50.2   29.24     2
2016-09-26 19:00  21.6  29.5   288  64.8  49.6  57.5   29.24   304
2016-09-26 18:00  26.2  29.5   279  64.4  47.8  54.5   29.25   421
2016-09-26 17:00  26.0  28.2   289  64.4  46.3  51.3   29.25  2020
2016-09-26 16:00  26.8  30.9   286  64.4  47.6  54.0   29.25  1523
2016-09-26 15:00  26.2  29.4   277  63.7  48.4  57.2   29.25  2284
2016-09-26 14:00  22.2  24.9   281  62.6  50.0  63.0   29.27  2210
2016-09-26 13:00  23.3  24.9   294  62.1  50.3  65.0   29.28  1356
2016-09-26 12:00  24.7  29.5   293  61.5  50.2  65.9   29.29  1455
2016-09-26 11:00  22.6  25.7   285  62.1  51.1  67.0   29.29  1914
2016-09-26 10:00  24.9  28.4   282  62.6  51.8  67.4   29.28   728
2016-09-26 09:00  27.4  31.9   297  62.2  51.6  67.8   29.28   271
2016-09-26 08:00  25.3  28.4   311  62.6  51.4  66.4   29.29    31
2016-09-26 07:00  27.4  30.9   314  63.1  52.0  66.5   29.28     2
2016-09-26 06:00  22.4  25.9   305  63.7  56.9  78.3   29.27     2
2016-09-26 05:00  22.2  24.9   299  64.8  58.1  78.7   29.26     2
2016-09-26 04:00  20.4  22.7   296  64.6  59.1  82.2   29.27     2
2016-09-26 03:00  18.9  21.0   307  65.8  60.2  81.9   29.27     2
2016-09-26 02:00  19.4  20.6   315  67.5  61.5  80.8   29.27     2
2016-09-26 01:00  22.0  24.3   313  69.4  64.4  83.8   29.26     2
2016-09-26 00:00  23.5  26.6   195  69.4  66.7  90.9   29.23     2
2016-09-25 23:00  15.2  18.7   180  69.4  64.8  85.1   29.24     2
2016-09-25 22:00  17.1  20.0   183  69.6  66.0  88.0   29.27     2
2016-09-25 21:00   8.6  12.4   141  69.6  60.9  73.5   29.28     2
2016-09-25 20:00  13.2  17.5   141  72.7  58.7  61.1   29.29     2
2016-09-25 19:00  11.7  15.2   136  73.9  61.5  64.7   29.29    91
2016-09-25 18:00  10.9  13.2   147  76.3  62.4  61.7   29.31   907
2016-09-25 17:00   8.6  12.2   148  77.4  62.4  59.4   29.34  1646
2016-09-25 16:00  10.1  14.0   144  76.1  61.2  59.5   29.37  1607
2016-09-25 15:00   8.2  10.9   138  73.9  59.8  60.7   29.41  1422
2016-09-25 14:00   9.5  10.7   132  73.4  58.2  58.4   29.45  2294
2016-09-25 13:00   8.0  10.7   136  70.9  56.9  60.8   29.48  1806
2016-09-25 12:00   8.7  12.6   136  67.5  55.4  64.9   29.49  1763
2016-09-25 11:00   6.0   8.9   165  64.4  54.0  68.7   29.51  1694
2016-09-25 10:00   6.0   9.1   135  59.5  52.6  77.6   29.52   539
2016-09-25 09:00   8.6  10.9   128  57.2  51.6  81.4   29.53   148
2016-09-25 08:00   6.8   8.7   120  56.3  50.9  82.0   29.53    31
2016-09-25 07:00   6.4   9.1   122  56.3  50.8  81.5   29.54     2
2016-09-25 06:00   7.0   9.5   132  55.8  50.2  81.4   29.54     2
2016-09-25 05:00   9.9  12.8   121  55.8  49.9  80.5   29.55     2
2016-09-25 04:00  11.3  13.8   113  56.8  49.9  77.3   29.55     2
2016-09-25 03:00  13.2  16.5   113  57.4  50.0  76.2   29.55     2
2016-09-25 02:00  12.8  15.9   108  57.7  50.2  75.8   29.55     2
2016-09-25 01:00  12.6  16.1   108  58.8  50.6  73.9   29.56     2
2016-09-25 00:00  13.4  15.7   110  60.4  52.2  73.9   29.57     2
2016-09-24 23:00   9.1  11.7   110  62.8  53.6  71.5   29.57     2
2016-09-24 22:00   5.6   8.4   119  63.7  52.5  66.5   29.56     2
2016-09-24 21:00   5.8   7.6   119  64.6  53.2  66.3   29.56     2
2016-09-24 20:00   6.6   9.3   127  66.0  52.6  61.4   29.55     3